sensor_id;sensor_type;location;lat;lon;timestamp;temperature;humidity
12335;DHT22;6233;51.560;9.986;2023-01-06T00:01:35;8.60;99.90
12335;DHT22;6233;51.560;9.986;2023-01-06T00:04:37;8.60;99.90
12335;DHT22;6233;51.560;9.986;2023-01-06T00:07:39;8.60;99.90
12335;DHT22;6233;51.560;9.986;2023-01-06T00:10:41;8.60;99.90
12335;DHT22;6233;51.560;9.986;2023-01-06T00:13:43;8.60;99.90
12335;DHT22;6233;51.560;9.986;2023-01-06T00:16:45;8.60;99.90
12335;DHT22;6233;51.560;9.986;2023-01-06T00:19:47;8.60;99.90
12335;DHT22;6233;51.560;9.986;2023-01-06T00:22:48;8.60;99.90
12335;DHT22;6233;51.560;9.986;2023-01-06T00:25:50;8.60;99.90
12335;DHT22;6233;51.560;9.986;2023-01-06T00:28:53;8.60;99.90
12335;DHT22;6233;51.560;9.986;2023-01-06T00:32:11;8.60;99.90
12335;DHT22;6233;51.560;9.986;2023-01-06T00:35:12;8.50;99.90
12335;DHT22;6233;51.560;9.986;2023-01-06T00:38:14;8.50;99.90
12335;DHT22;6233;51.560;9.986;2023-01-06T00:41:16;8.50;99.90
12335;DHT22;6233;51.560;9.986;2023-01-06T00:44:37;8.50;99.90
12335;DHT22;6233;51.560;9.986;2023-01-06T00:47:39;8.50;99.90
12335;DHT22;6233;51.560;9.986;2023-01-06T00:50:41;8.50;99.90
12335;DHT22;6233;51.560;9.986;2023-01-06T00:53:42;8.40;99.90
12335;DHT22;6233;51.560;9.986;2023-01-06T00:56:49;8.50;99.90
12335;DHT22;6233;51.560;9.986;2023-01-06T00:59:52;8.50;99.90
12335;DHT22;6233;51.560;9.986;2023-01-06T01:02:53;8.50;99.90
12335;DHT22;6233;51.560;9.986;2023-01-06T01:05:58;8.50;99.90
12335;DHT22;6233;51.560;9.986;2023-01-06T01:09:01;8.50;99.90
12335;DHT22;6233;51.560;9.986;2023-01-06T01:12:03;8.50;99.90
12335;DHT22;6233;51.560;9.986;2023-01-06T01:15:10;8.50;99.90
12335;DHT22;6233;51.560;9.986;2023-01-06T01:18:12;8.50;99.90
12335;DHT22;6233;51.560;9.986;2023-01-06T01:21:14;8.50;99.90
12335;DHT22;6233;51.560;9.986;2023-01-06T01:24:16;8.50;99.90
12335;DHT22;6233;51.560;9.986;2023-01-06T01:27:18;8.50;99.90
12335;DHT22;6233;51.560;9.986;2023-01-06T01:30:19;8.50;99.90
12335;DHT22;6233;51.560;9.986;2023-01-06T01:33:21;8.50;99.90
12335;DHT22;6233;51.560;9.986;2023-01-06T01:36:23;8.40;99.90
12335;DHT22;6233;51.560;9.986;2023-01-06T01:39:26;8.50;99.90
12335;DHT22;6233;51.560;9.986;2023-01-06T01:42:28;8.50;99.90
12335;DHT22;6233;51.560;9.986;2023-01-06T01:45:30;8.50;99.90
12335;DHT22;6233;51.560;9.986;2023-01-06T01:48:33;8.50;99.90
12335;DHT22;6233;51.560;9.986;2023-01-06T01:51:39;8.50;99.90
12335;DHT22;6233;51.560;9.986;2023-01-06T01:54:43;8.60;99.90
12335;DHT22;6233;51.560;9.986;2023-01-06T01:57:59;8.60;99.90
12335;DHT22;6233;51.560;9.986;2023-01-06T02:01:04;8.60;99.90
12335;DHT22;6233;51.560;9.986;2023-01-06T02:04:07;8.60;99.90
12335;DHT22;6233;51.560;9.986;2023-01-06T02:07:09;8.60;99.90
12335;DHT22;6233;51.560;9.986;2023-01-06T02:10:15;8.60;99.90
12335;DHT22;6233;51.560;9.986;2023-01-06T02:13:17;8.60;99.90
12335;DHT22;6233;51.560;9.986;2023-01-06T02:33:16;8.60;99.90
12335;DHT22;6233;51.560;9.986;2023-01-06T02:49:24;8.60;99.90
12335;DHT22;6233;51.560;9.986;2023-01-06T02:52:41;8.60;99.90
12335;DHT22;6233;51.560;9.986;2023-01-06T02:55:46;8.60;99.90
12335;DHT22;6233;51.560;9.986;2023-01-06T02:59:10;8.60;99.90
12335;DHT22;6233;51.560;9.986;2023-01-06T03:02:17;8.70;99.90
12335;DHT22;6233;51.560;9.986;2023-01-06T03:05:22;8.60;99.90
12335;DHT22;6233;51.560;9.986;2023-01-06T03:08:27;8.60;99.90
12335;DHT22;6233;51.560;9.986;2023-01-06T03:11:30;8.70;99.90
12335;DHT22;6233;51.560;9.986;2023-01-06T03:14:37;8.70;99.90
12335;DHT22;6233;51.560;9.986;2023-01-06T03:17:52;8.70;99.90
12335;DHT22;6233;51.560;9.986;2023-01-06T03:20:55;8.70;99.90
12335;DHT22;6233;51.560;9.986;2023-01-06T03:24:00;8.70;99.90
12335;DHT22;6233;51.560;9.986;2023-01-06T03:27:02;8.70;99.90
12335;DHT22;6233;51.560;9.986;2023-01-06T03:30:06;8.70;99.90
12335;DHT22;6233;51.560;9.986;2023-01-06T03:33:24;8.70;99.90
12335;DHT22;6233;51.560;9.986;2023-01-06T03:42:51;8.70;99.90
12335;DHT22;6233;51.560;9.986;2023-01-06T03:46:25;8.70;99.90
12335;DHT22;6233;51.560;9.986;2023-01-06T03:49:37;8.70;99.90
12335;DHT22;6233;51.560;9.986;2023-01-06T03:52:46;8.70;99.90
12335;DHT22;6233;51.560;9.986;2023-01-06T03:59:12;8.70;99.90
12335;DHT22;6233;51.560;9.986;2023-01-06T04:02:18;8.70;99.90
12335;DHT22;6233;51.560;9.986;2023-01-06T04:05:22;8.70;99.90
12335;DHT22;6233;51.560;9.986;2023-01-06T04:08:25;8.70;99.90
12335;DHT22;6233;51.560;9.986;2023-01-06T04:11:26;8.70;99.90
12335;DHT22;6233;51.560;9.986;2023-01-06T04:14:46;8.70;99.90
12335;DHT22;6233;51.560;9.986;2023-01-06T04:17:49;8.70;99.90
12335;DHT22;6233;51.560;9.986;2023-01-06T04:20:50;8.70;99.90
12335;DHT22;6233;51.560;9.986;2023-01-06T04:23:52;8.70;99.90
12335;DHT22;6233;51.560;9.986;2023-01-06T04:26:54;8.70;99.90
12335;DHT22;6233;51.560;9.986;2023-01-06T04:29:56;8.70;99.90
12335;DHT22;6233;51.560;9.986;2023-01-06T04:32:57;8.70;99.90
12335;DHT22;6233;51.560;9.986;2023-01-06T04:35:59;8.70;99.90
12335;DHT22;6233;51.560;9.986;2023-01-06T04:39:01;8.70;99.90
12335;DHT22;6233;51.560;9.986;2023-01-06T04:42:02;8.70;99.90
12335;DHT22;6233;51.560;9.986;2023-01-06T04:45:05;8.60;99.90
12335;DHT22;6233;51.560;9.986;2023-01-06T04:48:07;8.60;99.90
12335;DHT22;6233;51.560;9.986;2023-01-06T04:51:09;8.60;99.90
12335;DHT22;6233;51.560;9.986;2023-01-06T04:54:11;8.60;99.90
12335;DHT22;6233;51.560;9.986;2023-01-06T04:57:13;8.60;99.90
12335;DHT22;6233;51.560;9.986;2023-01-06T05:00:19;8.60;99.90
12335;DHT22;6233;51.560;9.986;2023-01-06T05:03:20;8.60;99.90
12335;DHT22;6233;51.560;9.986;2023-01-06T05:06:22;8.60;99.90
12335;DHT22;6233;51.560;9.986;2023-01-06T05:09:24;8.60;99.90
12335;DHT22;6233;51.560;9.986;2023-01-06T05:12:25;8.60;99.90
12335;DHT22;6233;51.560;9.986;2023-01-06T05:15:27;8.60;99.90
12335;DHT22;6233;51.560;9.986;2023-01-06T05:18:29;8.60;99.90
12335;DHT22;6233;51.560;9.986;2023-01-06T05:21:30;8.60;99.90
12335;DHT22;6233;51.560;9.986;2023-01-06T05:24:33;8.60;99.90
12335;DHT22;6233;51.560;9.986;2023-01-06T05:27:37;8.60;99.90
12335;DHT22;6233;51.560;9.986;2023-01-06T05:30:38;8.60;99.90
12335;DHT22;6233;51.560;9.986;2023-01-06T05:33:40;8.60;99.90
12335;DHT22;6233;51.560;9.986;2023-01-06T05:36:42;8.60;99.90
12335;DHT22;6233;51.560;9.986;2023-01-06T05:39:44;8.60;99.90
12335;DHT22;6233;51.560;9.986;2023-01-06T05:42:45;8.70;99.90
12335;DHT22;6233;51.560;9.986;2023-01-06T05:45:47;8.70;99.90
12335;DHT22;6233;51.560;9.986;2023-01-06T05:48:49;8.60;99.90
12335;DHT22;6233;51.560;9.986;2023-01-06T05:51:51;8.60;99.90
12335;DHT22;6233;51.560;9.986;2023-01-06T05:54:54;8.70;99.90
12335;DHT22;6233;51.560;9.986;2023-01-06T05:57:56;8.70;99.90
12335;DHT22;6233;51.560;9.986;2023-01-06T06:00:59;8.70;99.90
12335;DHT22;6233;51.560;9.986;2023-01-06T06:04:01;8.70;99.90
12335;DHT22;6233;51.560;9.986;2023-01-06T06:07:03;8.70;99.90
12335;DHT22;6233;51.560;9.986;2023-01-06T06:10:05;8.70;99.90
12335;DHT22;6233;51.560;9.986;2023-01-06T06:13:07;8.80;99.90
12335;DHT22;6233;51.560;9.986;2023-01-06T06:16:11;8.80;99.90
12335;DHT22;6233;51.560;9.986;2023-01-06T06:19:13;8.80;99.90
12335;DHT22;6233;51.560;9.986;2023-01-06T06:22:15;8.70;99.90
12335;DHT22;6233;51.560;9.986;2023-01-06T06:25:17;8.70;99.90
12335;DHT22;6233;51.560;9.986;2023-01-06T06:28:19;8.70;99.90
12335;DHT22;6233;51.560;9.986;2023-01-06T06:31:23;8.70;99.90
12335;DHT22;6233;51.560;9.986;2023-01-06T06:34:25;8.70;99.90
12335;DHT22;6233;51.560;9.986;2023-01-06T06:37:27;8.70;99.90
12335;DHT22;6233;51.560;9.986;2023-01-06T06:40:29;8.70;99.90
12335;DHT22;6233;51.560;9.986;2023-01-06T06:43:31;8.70;99.90
12335;DHT22;6233;51.560;9.986;2023-01-06T06:46:33;8.70;99.90
12335;DHT22;6233;51.560;9.986;2023-01-06T06:49:34;8.70;99.90
12335;DHT22;6233;51.560;9.986;2023-01-06T06:52:36;8.70;99.90
12335;DHT22;6233;51.560;9.986;2023-01-06T06:55:38;8.70;99.90
12335;DHT22;6233;51.560;9.986;2023-01-06T06:58:40;8.70;99.90
12335;DHT22;6233;51.560;9.986;2023-01-06T07:01:42;8.70;99.90
12335;DHT22;6233;51.560;9.986;2023-01-06T07:04:44;8.70;99.90
12335;DHT22;6233;51.560;9.986;2023-01-06T07:07:45;8.70;99.90
12335;DHT22;6233;51.560;9.986;2023-01-06T07:10:47;8.70;99.90
12335;DHT22;6233;51.560;9.986;2023-01-06T07:13:49;8.70;99.90
12335;DHT22;6233;51.560;9.986;2023-01-06T07:16:50;8.80;99.90
12335;DHT22;6233;51.560;9.986;2023-01-06T07:19:52;8.70;99.90
12335;DHT22;6233;51.560;9.986;2023-01-06T07:22:54;8.70;99.90
12335;DHT22;6233;51.560;9.986;2023-01-06T07:25:58;8.70;99.90
12335;DHT22;6233;51.560;9.986;2023-01-06T07:29:00;8.70;99.90
12335;DHT22;6233;51.560;9.986;2023-01-06T07:32:02;8.70;99.90
12335;DHT22;6233;51.560;9.986;2023-01-06T07:35:04;8.80;99.90
12335;DHT22;6233;51.560;9.986;2023-01-06T07:38:07;8.80;99.90
12335;DHT22;6233;51.560;9.986;2023-01-06T07:41:09;8.80;99.90
12335;DHT22;6233;51.560;9.986;2023-01-06T07:44:10;8.70;99.90
12335;DHT22;6233;51.560;9.986;2023-01-06T07:47:13;8.80;99.90
12335;DHT22;6233;51.560;9.986;2023-01-06T07:50:14;8.90;99.90
12335;DHT22;6233;51.560;9.986;2023-01-06T07:53:16;8.80;99.90
12335;DHT22;6233;51.560;9.986;2023-01-06T07:56:18;8.80;99.90
12335;DHT22;6233;51.560;9.986;2023-01-06T07:59:20;8.80;99.90
12335;DHT22;6233;51.560;9.986;2023-01-06T08:02:22;8.80;99.90
12335;DHT22;6233;51.560;9.986;2023-01-06T08:05:24;8.80;99.90
12335;DHT22;6233;51.560;9.986;2023-01-06T08:08:26;8.80;99.90
12335;DHT22;6233;51.560;9.986;2023-01-06T08:11:28;8.90;99.90
12335;DHT22;6233;51.560;9.986;2023-01-06T08:14:29;8.90;99.90
12335;DHT22;6233;51.560;9.986;2023-01-06T08:17:31;8.90;99.90
12335;DHT22;6233;51.560;9.986;2023-01-06T08:20:33;8.90;99.90
12335;DHT22;6233;51.560;9.986;2023-01-06T08:23:36;8.90;99.90
12335;DHT22;6233;51.560;9.986;2023-01-06T08:26:38;8.90;99.90
12335;DHT22;6233;51.560;9.986;2023-01-06T08:29:39;8.90;99.90
12335;DHT22;6233;51.560;9.986;2023-01-06T08:32:41;8.90;99.90
12335;DHT22;6233;51.560;9.986;2023-01-06T08:35:43;8.90;99.90
12335;DHT22;6233;51.560;9.986;2023-01-06T08:39:02;8.90;99.90
12335;DHT22;6233;51.560;9.986;2023-01-06T08:42:03;8.90;99.90
12335;DHT22;6233;51.560;9.986;2023-01-06T08:45:05;8.90;99.90
12335;DHT22;6233;51.560;9.986;2023-01-06T08:48:08;8.90;99.90
12335;DHT22;6233;51.560;9.986;2023-01-06T08:51:13;8.90;99.90
12335;DHT22;6233;51.560;9.986;2023-01-06T08:54:15;8.90;99.90
12335;DHT22;6233;51.560;9.986;2023-01-06T08:57:17;8.90;99.90
12335;DHT22;6233;51.560;9.986;2023-01-06T09:00:18;8.90;99.90
12335;DHT22;6233;51.560;9.986;2023-01-06T09:03:21;8.90;99.90
12335;DHT22;6233;51.560;9.986;2023-01-06T09:06:24;8.90;99.90
12335;DHT22;6233;51.560;9.986;2023-01-06T09:09:25;8.90;99.90
12335;DHT22;6233;51.560;9.986;2023-01-06T09:12:27;8.90;99.90
12335;DHT22;6233;51.560;9.986;2023-01-06T09:15:29;8.90;99.90
12335;DHT22;6233;51.560;9.986;2023-01-06T09:18:31;8.90;99.90
12335;DHT22;6233;51.560;9.986;2023-01-06T09:21:33;8.90;99.90
12335;DHT22;6233;51.560;9.986;2023-01-06T09:24:34;8.90;99.90
12335;DHT22;6233;51.560;9.986;2023-01-06T09:27:38;8.90;99.90
12335;DHT22;6233;51.560;9.986;2023-01-06T09:30:40;8.90;99.90
12335;DHT22;6233;51.560;9.986;2023-01-06T09:33:41;8.90;99.90
12335;DHT22;6233;51.560;9.986;2023-01-06T09:36:43;8.90;99.90
12335;DHT22;6233;51.560;9.986;2023-01-06T09:39:46;9.00;99.90
12335;DHT22;6233;51.560;9.986;2023-01-06T09:46:10;9.00;99.90
12335;DHT22;6233;51.560;9.986;2023-01-06T09:49:43;9.00;99.90
12335;DHT22;6233;51.560;9.986;2023-01-06T09:53:05;9.00;99.90
12335;DHT22;6233;51.560;9.986;2023-01-06T09:56:16;9.10;99.90
12335;DHT22;6233;51.560;9.986;2023-01-06T09:59:28;9.10;99.90
12335;DHT22;6233;51.560;9.986;2023-01-06T10:02:39;9.10;99.90
12335;DHT22;6233;51.560;9.986;2023-01-06T10:12:36;9.10;99.90
12335;DHT22;6233;51.560;9.986;2023-01-06T10:15:54;9.10;99.90
12335;DHT22;6233;51.560;9.986;2023-01-06T10:19:28;9.10;99.90
12335;DHT22;6233;51.560;9.986;2023-01-06T10:22:55;9.10;99.90
12335;DHT22;6233;51.560;9.986;2023-01-06T10:26:14;9.10;99.90
12335;DHT22;6233;51.560;9.986;2023-01-06T10:29:19;9.00;99.90
12335;DHT22;6233;51.560;9.986;2023-01-06T10:32:21;9.00;99.90
12335;DHT22;6233;51.560;9.986;2023-01-06T10:35:26;9.00;99.90
12335;DHT22;6233;51.560;9.986;2023-01-06T10:38:45;9.00;99.90
12335;DHT22;6233;51.560;9.986;2023-01-06T10:42:00;9.00;99.90
12335;DHT22;6233;51.560;9.986;2023-01-06T10:45:46;9.00;99.90
12335;DHT22;6233;51.560;9.986;2023-01-06T10:48:48;9.10;99.90
12335;DHT22;6233;51.560;9.986;2023-01-06T10:51:58;9.00;99.90
12335;DHT22;6233;51.560;9.986;2023-01-06T10:55:03;9.10;99.90
12335;DHT22;6233;51.560;9.986;2023-01-06T10:58:16;9.10;99.90
12335;DHT22;6233;51.560;9.986;2023-01-06T11:01:25;9.10;99.90
12335;DHT22;6233;51.560;9.986;2023-01-06T11:04:27;9.10;99.90
12335;DHT22;6233;51.560;9.986;2023-01-06T11:07:29;9.10;99.90
12335;DHT22;6233;51.560;9.986;2023-01-06T11:10:41;9.10;99.90
12335;DHT22;6233;51.560;9.986;2023-01-06T11:14:03;9.10;99.90
12335;DHT22;6233;51.560;9.986;2023-01-06T11:17:18;9.10;99.90
12335;DHT22;6233;51.560;9.986;2023-01-06T11:23:23;9.10;99.90
12335;DHT22;6233;51.560;9.986;2023-01-06T11:26:27;9.10;99.90
12335;DHT22;6233;51.560;9.986;2023-01-06T11:29:34;9.20;99.90
12335;DHT22;6233;51.560;9.986;2023-01-06T11:32:36;9.20;99.90
12335;DHT22;6233;51.560;9.986;2023-01-06T11:35:38;9.20;99.90
12335;DHT22;6233;51.560;9.986;2023-01-06T11:38:48;9.20;99.90
12335;DHT22;6233;51.560;9.986;2023-01-06T11:41:51;9.20;99.90
12335;DHT22;6233;51.560;9.986;2023-01-06T11:44:59;9.20;99.90
12335;DHT22;6233;51.560;9.986;2023-01-06T11:48:10;9.20;99.90
12335;DHT22;6233;51.560;9.986;2023-01-06T11:51:14;9.20;99.90
12335;DHT22;6233;51.560;9.986;2023-01-06T11:54:31;9.20;99.90
12335;DHT22;6233;51.560;9.986;2023-01-06T12:04:50;9.30;99.90
12335;DHT22;6233;51.560;9.986;2023-01-06T12:07:54;9.30;99.90
12335;DHT22;6233;51.560;9.986;2023-01-06T12:11:09;9.30;99.90
12335;DHT22;6233;51.560;9.986;2023-01-06T12:14:24;9.30;99.90
12335;DHT22;6233;51.560;9.986;2023-01-06T12:17:46;9.30;99.90
12335;DHT22;6233;51.560;9.986;2023-01-06T12:20:50;9.30;99.90
12335;DHT22;6233;51.560;9.986;2023-01-06T12:23:53;9.30;99.90
12335;DHT22;6233;51.560;9.986;2023-01-06T12:26:59;9.20;99.90
12335;DHT22;6233;51.560;9.986;2023-01-06T12:30:06;9.30;99.90
12335;DHT22;6233;51.560;9.986;2023-01-06T12:33:34;9.30;99.90
12335;DHT22;6233;51.560;9.986;2023-01-06T12:43:27;9.10;99.90
12335;DHT22;6233;51.560;9.986;2023-01-06T12:46:37;9.00;99.90
12335;DHT22;6233;51.560;9.986;2023-01-06T12:53:17;8.90;99.90
12335;DHT22;6233;51.560;9.986;2023-01-06T12:56:42;8.90;99.90
12335;DHT22;6233;51.560;9.986;2023-01-06T13:04:01;8.90;99.90
12335;DHT22;6233;51.560;9.986;2023-01-06T13:07:14;8.80;99.90
12335;DHT22;6233;51.560;9.986;2023-01-06T13:10:32;8.80;99.90
12335;DHT22;6233;51.560;9.986;2023-01-06T13:13:52;8.80;99.90
12335;DHT22;6233;51.560;9.986;2023-01-06T13:17:34;8.80;99.90
12335;DHT22;6233;51.560;9.986;2023-01-06T13:20:34;8.90;99.90
12335;DHT22;6233;51.560;9.986;2023-01-06T13:23:48;8.90;99.90
12335;DHT22;6233;51.560;9.986;2023-01-06T13:27:20;8.90;99.90
12335;DHT22;6233;51.560;9.986;2023-01-06T13:33:49;8.80;99.90
12335;DHT22;6233;51.560;9.986;2023-01-06T13:40:20;8.90;99.90
12335;DHT22;6233;51.560;9.986;2023-01-06T13:43:29;8.90;99.90
12335;DHT22;6233;51.560;9.986;2023-01-06T13:46:34;8.90;99.90
12335;DHT22;6233;51.560;9.986;2023-01-06T13:49:37;8.90;99.90
12335;DHT22;6233;51.560;9.986;2023-01-06T13:52:39;8.90;99.90
12335;DHT22;6233;51.560;9.986;2023-01-06T13:55:42;8.90;99.90
12335;DHT22;6233;51.560;9.986;2023-01-06T13:58:45;8.90;99.90
12335;DHT22;6233;51.560;9.986;2023-01-06T14:01:47;8.90;99.90
12335;DHT22;6233;51.560;9.986;2023-01-06T14:04:49;8.90;99.90
12335;DHT22;6233;51.560;9.986;2023-01-06T14:07:56;8.90;99.90
12335;DHT22;6233;51.560;9.986;2023-01-06T14:11:24;9.00;99.90
12335;DHT22;6233;51.560;9.986;2023-01-06T14:14:25;9.00;99.90
12335;DHT22;6233;51.560;9.986;2023-01-06T14:20:38;9.00;99.90
12335;DHT22;6233;51.560;9.986;2023-01-06T14:24:36;9.00;99.90
12335;DHT22;6233;51.560;9.986;2023-01-06T14:27:14;8.90;99.90
12335;DHT22;6233;51.560;9.986;2023-01-06T14:33:34;8.90;99.90
12335;DHT22;6233;51.560;9.986;2023-01-06T14:36:37;8.80;99.90
12335;DHT22;6233;51.560;9.986;2023-01-06T14:39:45;8.90;99.90
12335;DHT22;6233;51.560;9.986;2023-01-06T14:42:49;8.80;99.90
12335;DHT22;6233;51.560;9.986;2023-01-06T14:45:52;8.80;99.90
12335;DHT22;6233;51.560;9.986;2023-01-06T14:49:06;8.80;99.90
12335;DHT22;6233;51.560;9.986;2023-01-06T14:52:17;8.70;99.90
12335;DHT22;6233;51.560;9.986;2023-01-06T14:55:21;8.70;99.90
12335;DHT22;6233;51.560;9.986;2023-01-06T14:58:28;8.70;99.90
12335;DHT22;6233;51.560;9.986;2023-01-06T15:01:33;8.70;99.90
12335;DHT22;6233;51.560;9.986;2023-01-06T15:04:36;8.60;99.90
12335;DHT22;6233;51.560;9.986;2023-01-06T15:07:37;8.70;99.90
12335;DHT22;6233;51.560;9.986;2023-01-06T15:10:45;8.60;99.90
12335;DHT22;6233;51.560;9.986;2023-01-06T15:13:47;8.60;99.90
12335;DHT22;6233;51.560;9.986;2023-01-06T15:16:49;8.60;99.90
12335;DHT22;6233;51.560;9.986;2023-01-06T15:19:51;8.60;99.90
12335;DHT22;6233;51.560;9.986;2023-01-06T15:22:54;8.60;99.90
12335;DHT22;6233;51.560;9.986;2023-01-06T15:25:55;8.60;99.90
12335;DHT22;6233;51.560;9.986;2023-01-06T15:29:03;8.50;99.90
12335;DHT22;6233;51.560;9.986;2023-01-06T15:32:10;8.50;99.90
12335;DHT22;6233;51.560;9.986;2023-01-06T15:35:17;8.50;99.90
12335;DHT22;6233;51.560;9.986;2023-01-06T15:38:28;8.40;99.90
12335;DHT22;6233;51.560;9.986;2023-01-06T15:41:32;8.40;99.90
12335;DHT22;6233;51.560;9.986;2023-01-06T15:44:36;8.40;99.90
12335;DHT22;6233;51.560;9.986;2023-01-06T15:47:42;8.40;99.90
12335;DHT22;6233;51.560;9.986;2023-01-06T15:50:45;8.30;99.90
12335;DHT22;6233;51.560;9.986;2023-01-06T15:53:52;8.30;99.90
12335;DHT22;6233;51.560;9.986;2023-01-06T15:56:55;8.30;99.90
12335;DHT22;6233;51.560;9.986;2023-01-06T16:00:06;8.30;99.90
12335;DHT22;6233;51.560;9.986;2023-01-06T16:03:17;8.30;99.90
12335;DHT22;6233;51.560;9.986;2023-01-06T16:06:28;8.30;99.90
12335;DHT22;6233;51.560;9.986;2023-01-06T16:09:32;8.30;99.90
12335;DHT22;6233;51.560;9.986;2023-01-06T16:12:36;8.30;99.90
12335;DHT22;6233;51.560;9.986;2023-01-06T16:15:54;8.30;99.90
12335;DHT22;6233;51.560;9.986;2023-01-06T16:18:56;8.20;99.90
12335;DHT22;6233;51.560;9.986;2023-01-06T16:22:04;8.20;99.90
12335;DHT22;6233;51.560;9.986;2023-01-06T16:25:23;8.20;99.90
12335;DHT22;6233;51.560;9.986;2023-01-06T16:28:25;8.30;99.90
12335;DHT22;6233;51.560;9.986;2023-01-06T16:34:37;8.40;99.90
12335;DHT22;6233;51.560;9.986;2023-01-06T16:37:38;8.30;99.90
12335;DHT22;6233;51.560;9.986;2023-01-06T16:40:40;8.30;99.90
12335;DHT22;6233;51.560;9.986;2023-01-06T16:43:44;8.30;99.90
12335;DHT22;6233;51.560;9.986;2023-01-06T16:46:46;8.30;99.90
12335;DHT22;6233;51.560;9.986;2023-01-06T16:49:47;8.30;99.90
12335;DHT22;6233;51.560;9.986;2023-01-06T16:56:16;8.20;99.90
12335;DHT22;6233;51.560;9.986;2023-01-06T16:59:19;8.20;99.90
12335;DHT22;6233;51.560;9.986;2023-01-06T17:02:24;8.20;99.90
12335;DHT22;6233;51.560;9.986;2023-01-06T17:05:28;8.20;99.90
12335;DHT22;6233;51.560;9.986;2023-01-06T17:08:33;8.30;99.90
12335;DHT22;6233;51.560;9.986;2023-01-06T17:11:36;8.30;99.90
12335;DHT22;6233;51.560;9.986;2023-01-06T17:14:39;8.30;99.90
12335;DHT22;6233;51.560;9.986;2023-01-06T17:17:40;8.30;99.90
12335;DHT22;6233;51.560;9.986;2023-01-06T17:20:42;8.20;99.90
12335;DHT22;6233;51.560;9.986;2023-01-06T17:23:56;8.20;99.90
12335;DHT22;6233;51.560;9.986;2023-01-06T17:30:14;8.20;99.90
12335;DHT22;6233;51.560;9.986;2023-01-06T17:33:16;8.20;99.90
12335;DHT22;6233;51.560;9.986;2023-01-06T17:36:23;8.20;99.90
12335;DHT22;6233;51.560;9.986;2023-01-06T17:39:27;8.20;99.90
12335;DHT22;6233;51.560;9.986;2023-01-06T17:42:58;8.10;99.90
12335;DHT22;6233;51.560;9.986;2023-01-06T17:46:01;8.10;99.90
12335;DHT22;6233;51.560;9.986;2023-01-06T17:52:31;8.10;99.90
12335;DHT22;6233;51.560;9.986;2023-01-06T17:55:44;8.10;99.90
12335;DHT22;6233;51.560;9.986;2023-01-06T17:58:48;8.10;99.90
12335;DHT22;6233;51.560;9.986;2023-01-06T18:01:50;8.10;99.90
12335;DHT22;6233;51.560;9.986;2023-01-06T18:04:53;8.10;99.90
12335;DHT22;6233;51.560;9.986;2023-01-06T18:08:11;8.10;99.90
12335;DHT22;6233;51.560;9.986;2023-01-06T18:11:25;8.20;99.90
12335;DHT22;6233;51.560;9.986;2023-01-06T18:14:32;8.20;99.90
12335;DHT22;6233;51.560;9.986;2023-01-06T18:17:39;8.20;99.90
12335;DHT22;6233;51.560;9.986;2023-01-06T18:24:16;8.20;99.90
12335;DHT22;6233;51.560;9.986;2023-01-06T18:27:23;8.20;99.90
12335;DHT22;6233;51.560;9.986;2023-01-06T18:30:25;8.20;99.90
12335;DHT22;6233;51.560;9.986;2023-01-06T18:33:29;8.30;99.90
12335;DHT22;6233;51.560;9.986;2023-01-06T18:36:31;8.30;99.90
12335;DHT22;6233;51.560;9.986;2023-01-06T18:39:40;8.40;99.90
12335;DHT22;6233;51.560;9.986;2023-01-06T18:42:44;8.40;99.90
12335;DHT22;6233;51.560;9.986;2023-01-06T18:45:50;8.40;99.90
12335;DHT22;6233;51.560;9.986;2023-01-06T18:48:55;8.40;99.90
12335;DHT22;6233;51.560;9.986;2023-01-06T18:51:57;8.40;99.90
12335;DHT22;6233;51.560;9.986;2023-01-06T18:54:59;8.40;99.90
12335;DHT22;6233;51.560;9.986;2023-01-06T19:01:51;8.50;99.90
12335;DHT22;6233;51.560;9.986;2023-01-06T19:04:55;8.50;99.90
12335;DHT22;6233;51.560;9.986;2023-01-06T19:08:05;8.50;99.90
12335;DHT22;6233;51.560;9.986;2023-01-06T19:11:19;8.50;99.90
12335;DHT22;6233;51.560;9.986;2023-01-06T19:14:22;8.50;99.90
12335;DHT22;6233;51.560;9.986;2023-01-06T19:17:26;8.50;99.90
12335;DHT22;6233;51.560;9.986;2023-01-06T19:20:29;8.50;99.90
12335;DHT22;6233;51.560;9.986;2023-01-06T19:23:35;8.50;99.90
12335;DHT22;6233;51.560;9.986;2023-01-06T19:26:40;8.50;99.90
12335;DHT22;6233;51.560;9.986;2023-01-06T19:29:42;8.50;99.90
12335;DHT22;6233;51.560;9.986;2023-01-06T19:32:44;8.50;99.90
12335;DHT22;6233;51.560;9.986;2023-01-06T19:35:45;8.50;99.90
12335;DHT22;6233;51.560;9.986;2023-01-06T19:38:47;8.50;99.90
12335;DHT22;6233;51.560;9.986;2023-01-06T19:41:53;8.50;99.90
12335;DHT22;6233;51.560;9.986;2023-01-06T19:44:58;8.50;99.90
12335;DHT22;6233;51.560;9.986;2023-01-06T19:48:07;8.50;99.90
12335;DHT22;6233;51.560;9.986;2023-01-06T19:57:30;8.50;99.90
12335;DHT22;6233;51.560;9.986;2023-01-06T20:00:47;8.60;99.90
12335;DHT22;6233;51.560;9.986;2023-01-06T20:03:53;8.60;99.90
12335;DHT22;6233;51.560;9.986;2023-01-06T20:06:56;8.60;99.90
12335;DHT22;6233;51.560;9.986;2023-01-06T20:09:58;8.60;99.90
12335;DHT22;6233;51.560;9.986;2023-01-06T20:13:00;8.60;99.90
12335;DHT22;6233;51.560;9.986;2023-01-06T20:16:03;8.60;99.90
12335;DHT22;6233;51.560;9.986;2023-01-06T20:19:19;8.60;99.90
12335;DHT22;6233;51.560;9.986;2023-01-06T20:22:22;8.60;99.90
12335;DHT22;6233;51.560;9.986;2023-01-06T20:25:25;8.60;99.90
12335;DHT22;6233;51.560;9.986;2023-01-06T20:28:27;8.60;99.90
12335;DHT22;6233;51.560;9.986;2023-01-06T20:31:30;8.60;99.90
12335;DHT22;6233;51.560;9.986;2023-01-06T20:34:32;8.60;99.90
12335;DHT22;6233;51.560;9.986;2023-01-06T20:37:34;8.60;99.90
12335;DHT22;6233;51.560;9.986;2023-01-06T20:40:35;8.70;99.90
12335;DHT22;6233;51.560;9.986;2023-01-06T20:43:37;8.60;99.90
12335;DHT22;6233;51.560;9.986;2023-01-06T20:46:39;8.70;99.90
12335;DHT22;6233;51.560;9.986;2023-01-06T20:49:41;8.70;99.90
12335;DHT22;6233;51.560;9.986;2023-01-06T20:52:43;8.70;99.90
12335;DHT22;6233;51.560;9.986;2023-01-06T20:55:46;8.70;99.90
12335;DHT22;6233;51.560;9.986;2023-01-06T20:58:50;8.70;99.90
12335;DHT22;6233;51.560;9.986;2023-01-06T21:01:51;8.70;99.90
12335;DHT22;6233;51.560;9.986;2023-01-06T21:04:53;8.70;99.90
12335;DHT22;6233;51.560;9.986;2023-01-06T21:08:09;8.60;99.90
12335;DHT22;6233;51.560;9.986;2023-01-06T21:11:11;8.60;99.90
12335;DHT22;6233;51.560;9.986;2023-01-06T21:14:12;8.60;99.90
12335;DHT22;6233;51.560;9.986;2023-01-06T21:17:14;8.60;99.90
12335;DHT22;6233;51.560;9.986;2023-01-06T21:20:16;8.60;99.90
12335;DHT22;6233;51.560;9.986;2023-01-06T21:23:18;8.60;99.90
12335;DHT22;6233;51.560;9.986;2023-01-06T21:26:20;8.60;99.90
12335;DHT22;6233;51.560;9.986;2023-01-06T21:29:21;8.50;99.90
12335;DHT22;6233;51.560;9.986;2023-01-06T21:32:23;8.50;99.90
12335;DHT22;6233;51.560;9.986;2023-01-06T21:35:25;8.50;99.90
12335;DHT22;6233;51.560;9.986;2023-01-06T21:38:45;8.50;99.90
12335;DHT22;6233;51.560;9.986;2023-01-06T21:41:48;8.50;99.90
12335;DHT22;6233;51.560;9.986;2023-01-06T21:45:10;8.50;99.90
12335;DHT22;6233;51.560;9.986;2023-01-06T21:48:12;8.50;99.90
12335;DHT22;6233;51.560;9.986;2023-01-06T21:51:16;8.40;99.90
12335;DHT22;6233;51.560;9.986;2023-01-06T21:54:19;8.40;99.90
12335;DHT22;6233;51.560;9.986;2023-01-06T21:57:21;8.40;99.90
12335;DHT22;6233;51.560;9.986;2023-01-06T22:00:23;8.40;99.90
12335;DHT22;6233;51.560;9.986;2023-01-06T22:03:25;8.40;99.90
12335;DHT22;6233;51.560;9.986;2023-01-06T22:06:27;8.40;99.90